To NAV CANADA Home Page Login to a new session Search on AWWS site Feedback and Comments Disclaimer Vers la page française équivalente Tips FAQ What's new on the site To the Forecasts and Observations / NOTAM section To "File a Flight Plan" website Publications and other links Update of the User's profile FIC Telephone Numbers My Weather Data Folder Route Weather Data Regional Weather Data Local Weather Data To the Forecasts and Observations / NOTAM section
Request Generated 02/12/2016 at 09:31:58 UTC . Weather information available at that time is displayed.

METAR/TAF

LA GRANDE-4/QC    (show WxCam)

METAR CYAH 120900Z AUTO VRB02KT 9SM SCT180 SCT200 M37/M41 A2976 RMK
SLP129 DENSITY ALT MISG=
SPECI CYAH 120805Z AUTO 03002KT 9SM CLR M36/M40 A2975 RMK SLP126
DENSITY ALT MISG=
METAR CYAH 120800Z AUTO VRB03KT 9SM -SN CLR M35/M39 A2975 RMK SLP126
DENSITY ALT MISG=
SPECI CYAH 120738Z AUTO 00000KT 9SM -SN CLR M35/M39 A2975 RMK SLP125
DENSITY ALT MISG=
METAR CYAH 120700Z AUTO 00000KT 9SM CLR M36/M40 A2975 RMK SLP126
DENSITY ALT MISG=

*** REMARK        : Forecast period has ended; this was the last TAF issued
*** REMARQUE : La période de prévision est échue; ceci était le dernier TAF qui a été émis
TAF AMD CYAH 111902Z 1119/1122 26010KT P6SM SCT015 TEMPO 1119/1122
4SM IC BKN015
RMK FCST BASED ON AUTO OBS. NXT FCST WILL BE ISSUED AT 121145Z=
Your time UTC time
Weather data provided by Environment Canada and NAV CANADA